sensor_id;sensor_type;location;lat;lon;timestamp;pressure;altitude;pressure_sealevel;temperature;humidity
70589;BME280;58152;49.202;18.744;2023-05-20T00:00:46;98013.09;;;14.05;63.04
70589;BME280;58152;49.202;18.744;2023-05-20T00:03:18;98011.69;;;13.98;63.02
70589;BME280;58152;49.202;18.744;2023-05-20T00:05:47;98006.78;;;13.90;63.36
70589;BME280;58152;49.202;18.744;2023-05-20T00:08:15;98009.19;;;13.95;63.49
70589;BME280;58152;49.202;18.744;2023-05-20T00:10:40;97995.38;;;13.90;62.95
70589;BME280;58152;49.202;18.744;2023-05-20T00:13:06;98004.06;;;13.92;62.90
70589;BME280;58152;49.202;18.744;2023-05-20T00:15:32;98007.50;;;13.94;62.40
70589;BME280;58152;49.202;18.744;2023-05-20T00:17:59;98004.00;;;13.93;62.79
70589;BME280;58152;49.202;18.744;2023-05-20T00:20:25;98001.81;;;13.84;63.29
70589;BME280;58152;49.202;18.744;2023-05-20T00:22:50;98005.03;;;13.72;63.27
70589;BME280;58152;49.202;18.744;2023-05-20T00:25:16;98002.06;;;13.61;63.57
70589;BME280;58152;49.202;18.744;2023-05-20T00:27:41;98008.25;;;13.60;63.94
70589;BME280;58152;49.202;18.744;2023-05-20T00:30:07;98011.25;;;13.52;64.06
70589;BME280;58152;49.202;18.744;2023-05-20T00:32:33;98018.31;;;13.52;64.24
70589;BME280;58152;49.202;18.744;2023-05-20T00:35:02;98013.09;;;13.50;64.35
70589;BME280;58152;49.202;18.744;2023-05-20T00:37:27;98003.63;;;13.46;63.98
70589;BME280;58152;49.202;18.744;2023-05-20T00:39:53;98012.97;;;13.53;63.95
70589;BME280;58152;49.202;18.744;2023-05-20T00:42:22;98003.41;;;13.51;63.87
70589;BME280;58152;49.202;18.744;2023-05-20T00:44:48;98008.03;;;13.45;63.92
70589;BME280;58152;49.202;18.744;2023-05-20T00:47:15;98001.28;;;13.40;64.11
70589;BME280;58152;49.202;18.744;2023-05-20T00:49:42;98005.63;;;13.41;64.33
70589;BME280;58152;49.202;18.744;2023-05-20T00:52:08;98004.00;;;13.38;64.39
70589;BME280;58152;49.202;18.744;2023-05-20T00:54:33;97992.72;;;13.35;64.26
70589;BME280;58152;49.202;18.744;2023-05-20T00:56:59;97997.16;;;13.34;64.04
70589;BME280;58152;49.202;18.744;2023-05-20T00:59:27;97996.22;;;13.35;64.21
70589;BME280;58152;49.202;18.744;2023-05-20T01:01:52;97991.88;;;13.34;63.94
70589;BME280;58152;49.202;18.744;2023-05-20T01:04:18;97997.38;;;13.30;63.74
70589;BME280;58152;49.202;18.744;2023-05-20T01:06:44;97998.59;;;13.21;64.14
70589;BME280;58152;49.202;18.744;2023-05-20T01:09:10;98003.03;;;13.20;64.23
70589;BME280;58152;49.202;18.744;2023-05-20T01:11:43;97998.16;;;13.11;64.62
70589;BME280;58152;49.202;18.744;2023-05-20T01:14:12;97992.09;;;13.09;64.66
70589;BME280;58152;49.202;18.744;2023-05-20T01:16:39;97983.63;;;13.03;64.49
70589;BME280;58152;49.202;18.744;2023-05-20T01:19:17;97988.78;;;13.06;64.49
70589;BME280;58152;49.202;18.744;2023-05-20T01:21:46;97984.28;;;13.08;64.48
70589;BME280;58152;49.202;18.744;2023-05-20T01:24:13;97996.47;;;13.10;64.42
70589;BME280;58152;49.202;18.744;2023-05-20T01:26:39;97991.41;;;13.06;64.52
70589;BME280;58152;49.202;18.744;2023-05-20T01:29:04;97993.09;;;13.07;64.51
70589;BME280;58152;49.202;18.744;2023-05-20T01:31:32;97986.13;;;13.06;64.44
70589;BME280;58152;49.202;18.744;2023-05-20T01:34:01;97988.78;;;13.06;64.14
70589;BME280;58152;49.202;18.744;2023-05-20T01:36:27;97997.44;;;13.08;64.28
70589;BME280;58152;49.202;18.744;2023-05-20T01:38:53;97988.91;;;13.03;64.22
70589;BME280;58152;49.202;18.744;2023-05-20T01:41:20;97985.53;;;12.99;64.03
70589;BME280;58152;49.202;18.744;2023-05-20T01:43:48;97986.59;;;12.95;64.12
70589;BME280;58152;49.202;18.744;2023-05-20T01:46:14;97980.47;;;12.94;63.87
70589;BME280;58152;49.202;18.744;2023-05-20T01:48:39;97988.38;;;12.94;64.36
70589;BME280;58152;49.202;18.744;2023-05-20T01:51:05;97990.16;;;12.94;64.14
70589;BME280;58152;49.202;18.744;2023-05-20T01:53:30;97989.72;;;12.84;64.51
70589;BME280;58152;49.202;18.744;2023-05-20T01:55:56;97989.13;;;12.78;65.18
70589;BME280;58152;49.202;18.744;2023-05-20T01:58:21;97989.47;;;12.70;65.06
70589;BME280;58152;49.202;18.744;2023-05-20T02:00:46;97992.22;;;12.67;65.17
70589;BME280;58152;49.202;18.744;2023-05-20T02:03:12;97991.38;;;12.66;64.43
70589;BME280;58152;49.202;18.744;2023-05-20T02:05:37;97997.50;;;12.67;65.17
70589;BME280;58152;49.202;18.744;2023-05-20T02:08:03;97998.34;;;12.67;64.95
70589;BME280;58152;49.202;18.744;2023-05-20T02:10:28;97992.50;;;12.61;65.11
70589;BME280;58152;49.202;18.744;2023-05-20T02:12:54;97990.66;;;12.63;65.38
70589;BME280;58152;49.202;18.744;2023-05-20T02:15:19;98002.19;;;12.60;65.35
70589;BME280;58152;49.202;18.744;2023-05-20T02:17:45;98005.88;;;12.56;65.61
70589;BME280;58152;49.202;18.744;2023-05-20T02:20:11;98007.03;;;12.49;65.80
70589;BME280;58152;49.202;18.744;2023-05-20T02:22:38;98008.91;;;12.47;66.35
70589;BME280;58152;49.202;18.744;2023-05-20T02:25:04;98009.78;;;12.46;66.35
70589;BME280;58152;49.202;18.744;2023-05-20T02:27:29;98014.00;;;12.50;66.16
70589;BME280;58152;49.202;18.744;2023-05-20T02:29:55;98004.41;;;12.49;66.42
70589;BME280;58152;49.202;18.744;2023-05-20T02:32:21;98003.63;;;12.47;66.27
70589;BME280;58152;49.202;18.744;2023-05-20T02:34:52;97999.53;;;12.40;66.17
70589;BME280;58152;49.202;18.744;2023-05-20T02:37:18;97998.59;;;12.41;66.33
70589;BME280;58152;49.202;18.744;2023-05-20T02:39:43;98002.09;;;12.41;66.43
70589;BME280;58152;49.202;18.744;2023-05-20T02:42:09;98000.34;;;12.42;66.65
70589;BME280;58152;49.202;18.744;2023-05-20T02:44:34;97996.78;;;12.43;66.81
70589;BME280;58152;49.202;18.744;2023-05-20T02:46:59;97999.25;;;12.46;66.36
70589;BME280;58152;49.202;18.744;2023-05-20T02:49:25;97993.09;;;12.47;66.81
70589;BME280;58152;49.202;18.744;2023-05-20T02:51:50;97999.16;;;12.49;66.39
70589;BME280;58152;49.202;18.744;2023-05-20T02:54:16;97994.88;;;12.46;66.44
70589;BME280;58152;49.202;18.744;2023-05-20T02:56:41;98002.78;;;12.46;66.08
70589;BME280;58152;49.202;18.744;2023-05-20T02:59:07;97992.28;;;12.45;66.51
70589;BME280;58152;49.202;18.744;2023-05-20T03:01:32;98000.16;;;12.46;66.26
70589;BME280;58152;49.202;18.744;2023-05-20T03:04:00;97995.94;;;12.42;66.23
70589;BME280;58152;49.202;18.744;2023-05-20T03:06:26;98006.38;;;12.44;66.60
70589;BME280;58152;49.202;18.744;2023-05-20T03:08:51;98006.66;;;12.38;66.79
70589;BME280;58152;49.202;18.744;2023-05-20T03:11:17;98000.66;;;12.34;66.59
70589;BME280;58152;49.202;18.744;2023-05-20T03:13:42;98007.63;;;12.35;66.79
70589;BME280;58152;49.202;18.744;2023-05-20T03:16:08;98010.34;;;12.34;66.68
70589;BME280;58152;49.202;18.744;2023-05-20T03:18:33;98016.53;;;12.33;66.49
70589;BME280;58152;49.202;18.744;2023-05-20T03:20:58;98017.69;;;12.26;67.25
70589;BME280;58152;49.202;18.744;2023-05-20T03:23:24;98019.38;;;12.27;67.25
70589;BME280;58152;49.202;18.744;2023-05-20T03:25:49;98017.59;;;12.27;66.88
70589;BME280;58152;49.202;18.744;2023-05-20T03:28:15;98009.78;;;12.26;67.14
70589;BME280;58152;49.202;18.744;2023-05-20T03:30:41;98022.88;;;12.27;67.69
70589;BME280;58152;49.202;18.744;2023-05-20T03:33:06;98014.31;;;12.22;67.20
70589;BME280;58152;49.202;18.744;2023-05-20T03:35:32;98020.38;;;12.24;67.59
70589;BME280;58152;49.202;18.744;2023-05-20T03:38:00;98025.56;;;12.26;67.91
70589;BME280;58152;49.202;18.744;2023-05-20T03:40:26;98026.63;;;12.21;67.84
70589;BME280;58152;49.202;18.744;2023-05-20T03:42:51;98023.19;;;12.19;68.05
70589;BME280;58152;49.202;18.744;2023-05-20T03:45:17;98030.25;;;12.19;67.65
70589;BME280;58152;49.202;18.744;2023-05-20T03:47:42;98024.09;;;12.18;67.39
70589;BME280;58152;49.202;18.744;2023-05-20T03:50:08;98031.88;;;12.21;67.17
70589;BME280;58152;49.202;18.744;2023-05-20T03:52:33;98017.13;;;12.17;67.77
70589;BME280;58152;49.202;18.744;2023-05-20T03:54:59;98021.34;;;12.21;67.75
70589;BME280;58152;49.202;18.744;2023-05-20T03:57:26;98020.69;;;12.16;67.96
70589;BME280;58152;49.202;18.744;2023-05-20T03:59:53;98025.88;;;12.18;67.86
70589;BME280;58152;49.202;18.744;2023-05-20T04:02:19;98028.50;;;12.18;67.90
70589;BME280;58152;49.202;18.744;2023-05-20T04:04:45;98024.16;;;12.17;67.52
70589;BME280;58152;49.202;18.744;2023-05-20T04:07:10;98025.09;;;12.16;68.11
70589;BME280;58152;49.202;18.744;2023-05-20T04:09:37;98027.66;;;12.17;68.36
70589;BME280;58152;49.202;18.744;2023-05-20T04:12:03;98036.66;;;12.12;68.31
70589;BME280;58152;49.202;18.744;2023-05-20T04:14:29;98034.09;;;12.10;68.68
70589;BME280;58152;49.202;18.744;2023-05-20T04:16:55;98034.09;;;12.10;69.05
70589;BME280;58152;49.202;18.744;2023-05-20T04:19:21;98034.88;;;12.12;69.00
70589;BME280;58152;49.202;18.744;2023-05-20T04:21:48;98022.47;;;12.16;68.95
70589;BME280;58152;49.202;18.744;2023-05-20T04:24:14;98029.31;;;12.20;69.53
70589;BME280;58152;49.202;18.744;2023-05-20T04:26:39;98005.84;;;12.15;69.04
70589;BME280;58152;49.202;18.744;2023-05-20T04:29:05;98021.34;;;12.21;69.57
70589;BME280;58152;49.202;18.744;2023-05-20T04:31:30;98013.56;;;12.18;69.48
70589;BME280;58152;49.202;18.744;2023-05-20T04:33:56;98030.16;;;12.20;69.04
70589;BME280;58152;49.202;18.744;2023-05-20T04:36:21;98012.81;;;12.16;69.58
70589;BME280;58152;49.202;18.744;2023-05-20T04:38:55;98022.19;;;12.22;70.03
70589;BME280;58152;49.202;18.744;2023-05-20T04:41:21;98025.84;;;12.19;69.74
70589;BME280;58152;49.202;18.744;2023-05-20T04:43:46;98021.34;;;12.21;69.72
70589;BME280;58152;49.202;18.744;2023-05-20T04:46:14;98023.00;;;12.24;70.01
70589;BME280;58152;49.202;18.744;2023-05-20T04:48:40;98024.78;;;12.24;70.49
70589;BME280;58152;49.202;18.744;2023-05-20T04:51:08;98028.94;;;12.29;69.99
70589;BME280;58152;49.202;18.744;2023-05-20T04:53:34;98021.91;;;12.30;70.07
70589;BME280;58152;49.202;18.744;2023-05-20T04:56:00;98013.19;;;12.28;70.08
70589;BME280;58152;49.202;18.744;2023-05-20T04:58:25;98020.91;;;12.32;69.97
70589;BME280;58152;49.202;18.744;2023-05-20T05:00:51;98019.06;;;12.34;70.06
70589;BME280;58152;49.202;18.744;2023-05-20T05:06:14;98014.00;;;12.30;71.03
70589;BME280;58152;49.202;18.744;2023-05-20T05:08:40;98010.56;;;12.28;70.86
70589;BME280;58152;49.202;18.744;2023-05-20T05:11:06;98015.81;;;12.28;70.62
70589;BME280;58152;49.202;18.744;2023-05-20T05:13:31;98024.44;;;12.31;70.75
70589;BME280;58152;49.202;18.744;2023-05-20T05:16:00;98010.63;;;12.26;70.92
70589;BME280;58152;49.202;18.744;2023-05-20T05:18:26;98014.78;;;12.32;70.19
70589;BME280;58152;49.202;18.744;2023-05-20T05:20:59;98023.41;;;12.35;70.33
70589;BME280;58152;49.202;18.744;2023-05-20T05:23:25;98006.03;;;12.31;70.77
70589;BME280;58152;49.202;18.744;2023-05-20T05:25:51;98008.56;;;12.34;70.58
70589;BME280;58152;49.202;18.744;2023-05-20T05:28:17;98007.56;;;12.37;70.83
70589;BME280;58152;49.202;18.744;2023-05-20T05:30:42;98012.75;;;12.38;70.71
70589;BME280;58152;49.202;18.744;2023-05-20T05:33:08;98017.19;;;12.38;70.84
70589;BME280;58152;49.202;18.744;2023-05-20T05:35:39;98014.47;;;12.39;70.85
70589;BME280;58152;49.202;18.744;2023-05-20T05:38:08;98021.25;;;12.45;70.91
70589;BME280;58152;49.202;18.744;2023-05-20T05:40:34;98009.97;;;12.41;71.15
70589;BME280;58152;49.202;18.744;2023-05-20T05:43:02;98008.09;;;12.45;70.77
70589;BME280;58152;49.202;18.744;2023-05-20T05:45:28;98002.03;;;12.43;70.83
70589;BME280;58152;49.202;18.744;2023-05-20T05:47:56;98007.16;;;12.46;71.29
70589;BME280;58152;49.202;18.744;2023-05-20T05:50:28;98003.88;;;12.41;71.56
70589;BME280;58152;49.202;18.744;2023-05-20T05:53:00;98001.03;;;12.45;71.60
70589;BME280;58152;49.202;18.744;2023-05-20T05:55:29;98008.91;;;12.47;71.38
70589;BME280;58152;49.202;18.744;2023-05-20T05:57:54;97995.75;;;12.47;71.31
70589;BME280;58152;49.202;18.744;2023-05-20T06:00:29;98001.00;;;12.47;71.89
70589;BME280;58152;49.202;18.744;2023-05-20T06:02:59;97995.66;;;12.49;71.44
70589;BME280;58152;49.202;18.744;2023-05-20T06:05:25;98003.47;;;12.50;71.91
70589;BME280;58152;49.202;18.744;2023-05-20T06:07:54;97991.25;;;12.49;71.62
70589;BME280;58152;49.202;18.744;2023-05-20T06:10:45;97998.09;;;12.53;71.52
70589;BME280;58152;49.202;18.744;2023-05-20T06:13:11;98007.50;;;12.59;71.62
70589;BME280;58152;49.202;18.744;2023-05-20T06:15:48;97999.78;;;12.54;71.31
70589;BME280;58152;49.202;18.744;2023-05-20T06:18:16;98013.56;;;12.61;71.51
70589;BME280;58152;49.202;18.744;2023-05-20T06:20:42;97998.75;;;12.58;71.55
70589;BME280;58152;49.202;18.744;2023-05-20T06:23:07;98000.31;;;12.62;71.08
70589;BME280;58152;49.202;18.744;2023-05-20T06:25:32;98001.78;;;12.69;71.20
70589;BME280;58152;49.202;18.744;2023-05-20T06:27:58;98002.66;;;12.70;71.17
70589;BME280;58152;49.202;18.744;2023-05-20T06:30:23;97993.81;;;12.71;71.44
70589;BME280;58152;49.202;18.744;2023-05-20T06:32:49;97999.94;;;12.71;71.12
70589;BME280;58152;49.202;18.744;2023-05-20T06:35:14;97994.53;;;12.75;71.06
70589;BME280;58152;49.202;18.744;2023-05-20T06:37:40;97997.94;;;12.77;71.10
70589;BME280;58152;49.202;18.744;2023-05-20T06:40:05;97990.84;;;12.79;71.22
70589;BME280;58152;49.202;18.744;2023-05-20T06:42:31;97992.41;;;12.83;71.06
70589;BME280;58152;49.202;18.744;2023-05-20T06:44:57;97991.41;;;12.85;70.94
70589;BME280;58152;49.202;18.744;2023-05-20T06:47:22;97989.50;;;12.89;71.34
70589;BME280;58152;49.202;18.744;2023-05-20T06:49:48;97987.59;;;12.92;70.85
70589;BME280;58152;49.202;18.744;2023-05-20T06:52:13;97978.69;;;12.95;71.04
70589;BME280;58152;49.202;18.744;2023-05-20T06:54:38;97988.25;;;12.97;71.06
70589;BME280;58152;49.202;18.744;2023-05-20T06:57:08;97971.53;;;12.98;71.15
70589;BME280;58152;49.202;18.744;2023-05-20T06:59:34;97971.44;;;13.00;71.33
70589;BME280;58152;49.202;18.744;2023-05-20T07:02:00;97981.78;;;13.05;71.40
70589;BME280;58152;49.202;18.744;2023-05-20T07:04:26;97972.09;;;13.05;71.41
70589;BME280;58152;49.202;18.744;2023-05-20T07:06:51;97978.06;;;13.09;71.31
70589;BME280;58152;49.202;18.744;2023-05-20T07:09:23;97963.13;;;13.09;71.26
70589;BME280;58152;49.202;18.744;2023-05-20T07:11:49;97973.31;;;13.17;71.53
70589;BME280;58152;49.202;18.744;2023-05-20T07:14:14;97970.59;;;13.18;71.52
70589;BME280;58152;49.202;18.744;2023-05-20T07:16:40;97965.19;;;13.21;71.66
70589;BME280;58152;49.202;18.744;2023-05-20T07:19:05;97958.19;;;13.22;71.67
70589;BME280;58152;49.202;18.744;2023-05-20T07:21:31;97960.53;;;13.28;71.52
70589;BME280;58152;49.202;18.744;2023-05-20T07:24:00;97955.19;;;13.30;72.08
70589;BME280;58152;49.202;18.744;2023-05-20T07:26:25;97955.91;;;13.33;71.84
70589;BME280;58152;49.202;18.744;2023-05-20T07:28:51;97952.13;;;13.39;71.84
70589;BME280;58152;49.202;18.744;2023-05-20T07:31:16;97956.34;;;13.43;72.13
70589;BME280;58152;49.202;18.744;2023-05-20T07:33:42;97949.06;;;13.48;72.09
70589;BME280;58152;49.202;18.744;2023-05-20T07:36:07;97934.88;;;13.51;71.97
70589;BME280;58152;49.202;18.744;2023-05-20T07:38:32;97943.50;;;13.54;71.98
70589;BME280;58152;49.202;18.744;2023-05-20T07:40:58;97933.78;;;13.55;71.89
70589;BME280;58152;49.202;18.744;2023-05-20T07:43:23;97933.66;;;13.58;71.65
70589;BME280;58152;49.202;18.744;2023-05-20T07:45:49;97930.66;;;13.65;71.71
70589;BME280;58152;49.202;18.744;2023-05-20T07:48:14;97934.06;;;13.67;71.37
70589;BME280;58152;49.202;18.744;2023-05-20T07:50:40;97926.88;;;13.71;71.58
70589;BME280;58152;49.202;18.744;2023-05-20T07:53:05;97932.91;;;13.73;71.69
70589;BME280;58152;49.202;18.744;2023-05-20T07:55:34;97935.25;;;13.79;71.59
70589;BME280;58152;49.202;18.744;2023-05-20T07:58:03;97931.75;;;13.79;71.24
70589;BME280;58152;49.202;18.744;2023-05-20T08:00:29;97920.81;;;13.86;71.49
70589;BME280;58152;49.202;18.744;2023-05-20T08:02:55;97920.59;;;13.91;71.60
70589;BME280;58152;49.202;18.744;2023-05-20T08:05:20;97913.31;;;13.96;71.59
70589;BME280;58152;49.202;18.744;2023-05-20T08:07:47;97908.72;;;13.99;71.46
70589;BME280;58152;49.202;18.744;2023-05-20T08:10:12;97911.91;;;14.06;71.26
70589;BME280;58152;49.202;18.744;2023-05-20T08:12:38;97909.81;;;14.13;71.07
70589;BME280;58152;49.202;18.744;2023-05-20T08:15:04;97906.94;;;14.17;71.33
70589;BME280;58152;49.202;18.744;2023-05-20T08:17:31;97909.44;;;14.20;71.26
70589;BME280;58152;49.202;18.744;2023-05-20T08:20:00;97910.06;;;14.26;71.46
70589;BME280;58152;49.202;18.744;2023-05-20T08:22:26;97913.22;;;14.32;71.36
70589;BME280;58152;49.202;18.744;2023-05-20T08:24:52;97902.44;;;14.37;71.29
70589;BME280;58152;49.202;18.744;2023-05-20T08:27:17;97890.09;;;14.37;71.40
70589;BME280;58152;49.202;18.744;2023-05-20T08:29:43;97880.31;;;14.39;71.31
70589;BME280;58152;49.202;18.744;2023-05-20T08:32:09;97900.75;;;14.53;71.13
70589;BME280;58152;49.202;18.744;2023-05-20T08:34:35;97887.34;;;14.56;70.96
70589;BME280;58152;49.202;18.744;2023-05-20T08:37:01;97878.44;;;14.59;71.15
70589;BME280;58152;49.202;18.744;2023-05-20T08:39:27;97884.22;;;14.65;71.07
70589;BME280;58152;49.202;18.744;2023-05-20T08:41:52;97883.72;;;14.74;70.10
70589;BME280;58152;49.202;18.744;2023-05-20T08:44:19;97881.88;;;14.77;70.26
70589;BME280;58152;49.202;18.744;2023-05-20T08:46:46;97879.75;;;14.83;70.29
70589;BME280;58152;49.202;18.744;2023-05-20T08:49:12;97869.97;;;14.85;70.74
70589;BME280;58152;49.202;18.744;2023-05-20T08:51:38;97878.31;;;14.93;70.55
70589;BME280;58152;49.202;18.744;2023-05-20T08:54:05;97881.56;;;14.98;70.56
70589;BME280;58152;49.202;18.744;2023-05-20T08:56:32;97877.06;;;15.00;70.86
70589;BME280;58152;49.202;18.744;2023-05-20T08:58:58;97871.75;;;15.00;70.76
70589;BME280;58152;49.202;18.744;2023-05-20T09:01:24;97864.34;;;15.07;70.27
70589;BME280;58152;49.202;18.744;2023-05-20T09:03:50;97864.88;;;15.14;69.92
70589;BME280;58152;49.202;18.744;2023-05-20T09:06:16;97855.91;;;15.16;70.46
70589;BME280;58152;49.202;18.744;2023-05-20T09:08:47;97858.97;;;15.24;70.70
70589;BME280;58152;49.202;18.744;2023-05-20T09:11:13;97856.06;;;15.29;71.04
70589;BME280;58152;49.202;18.744;2023-05-20T09:13:38;97851.56;;;15.31;71.01
70589;BME280;58152;49.202;18.744;2023-05-20T09:16:05;97843.88;;;15.42;71.40
70589;BME280;58152;49.202;18.744;2023-05-20T09:18:31;97839.47;;;15.57;71.16
70589;BME280;58152;49.202;18.744;2023-05-20T09:20:56;97843.41;;;15.66;70.74
70589;BME280;58152;49.202;18.744;2023-05-20T09:23:22;97845.81;;;15.70;70.53
70589;BME280;58152;49.202;18.744;2023-05-20T09:25:59;97836.75;;;15.74;70.27
70589;BME280;58152;49.202;18.744;2023-05-20T09:28:30;97828.81;;;15.74;70.71
70589;BME280;58152;49.202;18.744;2023-05-20T09:30:59;97824.09;;;15.80;70.64
70589;BME280;58152;49.202;18.744;2023-05-20T09:33:29;97837.06;;;15.84;71.19
70589;BME280;58152;49.202;18.744;2023-05-20T09:36:03;97829.41;;;15.94;70.48
70589;BME280;58152;49.202;18.744;2023-05-20T09:38:32;97823.78;;;16.00;70.88
70589;BME280;58152;49.202;18.744;2023-05-20T09:41:10;97805.06;;;16.03;70.88
70589;BME280;58152;49.202;18.744;2023-05-20T09:43:38;97815.28;;;16.09;71.31
70589;BME280;58152;49.202;18.744;2023-05-20T09:46:05;97818.22;;;16.19;70.98
70589;BME280;58152;49.202;18.744;2023-05-20T09:48:32;97810.13;;;16.22;71.41
70589;BME280;58152;49.202;18.744;2023-05-20T09:51:03;97815.69;;;16.32;71.75
70589;BME280;58152;49.202;18.744;2023-05-20T09:53:29;97807.47;;;16.36;71.24
70589;BME280;58152;49.202;18.744;2023-05-20T09:55:55;97818.72;;;16.54;69.46
70589;BME280;58152;49.202;18.744;2023-05-20T09:58:21;97799.25;;;16.55;68.83
70589;BME280;58152;49.202;18.744;2023-05-20T10:00:51;97800.34;;;16.65;69.30
70589;BME280;58152;49.202;18.744;2023-05-20T10:03:28;97796.69;;;16.68;68.46
70589;BME280;58152;49.202;18.744;2023-05-20T10:15:03;97780.59;;;17.12;64.85
70589;BME280;58152;49.202;18.744;2023-05-20T10:20:26;97778.81;;;17.52;65.26
70589;BME280;58152;49.202;18.744;2023-05-20T10:22:56;97766.34;;;17.67;64.71
70589;BME280;58152;49.202;18.744;2023-05-20T10:25:27;97765.88;;;17.88;63.78
70589;BME280;58152;49.202;18.744;2023-05-20T10:28:11;97767.56;;;18.14;61.34
70589;BME280;58152;49.202;18.744;2023-05-20T10:30:37;97776.28;;;18.42;61.05
70589;BME280;58152;49.202;18.744;2023-05-20T10:33:04;97753.63;;;18.62;60.87
70589;BME280;58152;49.202;18.744;2023-05-20T10:35:31;97755.72;;;18.82;60.11
70589;BME280;58152;49.202;18.744;2023-05-20T10:38:08;97760.53;;;19.01;58.93
70589;BME280;58152;49.202;18.744;2023-05-20T10:40:35;97759.31;;;19.18;58.92
70589;BME280;58152;49.202;18.744;2023-05-20T10:43:11;97739.44;;;19.35;57.46
70589;BME280;58152;49.202;18.744;2023-05-20T10:45:57;97746.34;;;19.61;56.39
70589;BME280;58152;49.202;18.744;2023-05-20T10:48:26;97737.41;;;19.73;57.63
70589;BME280;58152;49.202;18.744;2023-05-20T10:50:56;97747.28;;;19.95;57.79
70589;BME280;58152;49.202;18.744;2023-05-20T10:53:27;97737.97;;;20.12;57.30
70589;BME280;58152;49.202;18.744;2023-05-20T10:55:53;97738.38;;;20.30;57.09
70589;BME280;58152;49.202;18.744;2023-05-20T10:58:25;97746.50;;;20.51;56.11
70589;BME280;58152;49.202;18.744;2023-05-20T11:00:53;97722.88;;;20.58;55.82
70589;BME280;58152;49.202;18.744;2023-05-20T11:03:21;97714.25;;;20.76;54.99
70589;BME280;58152;49.202;18.744;2023-05-20T11:05:48;97710.78;;;20.97;53.90
70589;BME280;58152;49.202;18.744;2023-05-20T11:08:17;97717.94;;;21.08;53.77
70589;BME280;58152;49.202;18.744;2023-05-20T11:10:47;97707.31;;;20.85;53.59
70589;BME280;58152;49.202;18.744;2023-05-20T11:13:12;97710.59;;;21.21;53.44
70589;BME280;58152;49.202;18.744;2023-05-20T11:15:41;97703.75;;;20.96;53.67
70589;BME280;58152;49.202;18.744;2023-05-20T11:18:06;97696.75;;;21.27;52.79
70589;BME280;58152;49.202;18.744;2023-05-20T11:20:32;97685.28;;;21.47;51.96
70589;BME280;58152;49.202;18.744;2023-05-20T11:22:59;97691.31;;;21.70;51.90
70589;BME280;58152;49.202;18.744;2023-05-20T11:25:44;97690.78;;;21.97;51.06
70589;BME280;58152;49.202;18.744;2023-05-20T11:28:13;97678.47;;;22.06;50.34
70589;BME280;58152;49.202;18.744;2023-05-20T11:30:44;97680.84;;;22.30;50.38
70589;BME280;58152;49.202;18.744;2023-05-20T11:33:13;97677.59;;;22.26;50.72
70589;BME280;58152;49.202;18.744;2023-05-20T11:35:52;97669.13;;;21.91;49.53
70589;BME280;58152;49.202;18.744;2023-05-20T11:38:25;97677.13;;;21.70;50.31
70589;BME280;58152;49.202;18.744;2023-05-20T11:40:52;97687.63;;;21.62;50.64
70589;BME280;58152;49.202;18.744;2023-05-20T11:43:19;97679.75;;;21.81;50.19
70589;BME280;58152;49.202;18.744;2023-05-20T11:46:07;97683.47;;;22.20;49.96
70589;BME280;58152;49.202;18.744;2023-05-20T11:48:36;97661.00;;;22.23;50.21
70589;BME280;58152;49.202;18.744;2023-05-20T11:51:02;97679.81;;;22.62;49.79
70589;BME280;58152;49.202;18.744;2023-05-20T11:53:28;97658.44;;;22.62;50.07
70589;BME280;58152;49.202;18.744;2023-05-20T11:55:56;97657.47;;;22.72;49.98
70589;BME280;58152;49.202;18.744;2023-05-20T11:58:24;97665.56;;;22.92;49.58
70589;BME280;58152;49.202;18.744;2023-05-20T12:00:49;97658.97;;;23.05;48.92
70589;BME280;58152;49.202;18.744;2023-05-20T12:03:15;97667.56;;;23.28;47.94
70589;BME280;58152;49.202;18.744;2023-05-20T12:05:41;97667.81;;;23.45;47.80
70589;BME280;58152;49.202;18.744;2023-05-20T12:08:07;97669.38;;;23.67;47.35
70589;BME280;58152;49.202;18.744;2023-05-20T12:10:33;97667.91;;;23.82;46.91
70589;BME280;58152;49.202;18.744;2023-05-20T12:12:59;97668.34;;;23.77;47.00
70589;BME280;58152;49.202;18.744;2023-05-20T12:15:24;97654.97;;;23.58;46.88
70589;BME280;58152;49.202;18.744;2023-05-20T12:17:51;97661.16;;;23.58;46.53
70589;BME280;58152;49.202;18.744;2023-05-20T12:20:20;97661.47;;;23.36;46.78
70589;BME280;58152;49.202;18.744;2023-05-20T12:22:46;97662.06;;;23.30;45.91
70589;BME280;58152;49.202;18.744;2023-05-20T12:25:12;97668.94;;;23.13;47.15
70589;BME280;58152;49.202;18.744;2023-05-20T12:27:42;97671.63;;;22.94;47.64
70589;BME280;58152;49.202;18.744;2023-05-20T12:30:16;97663.13;;;22.79;47.66
70589;BME280;58152;49.202;18.744;2023-05-20T12:32:42;97658.59;;;22.70;47.67
70589;BME280;58152;49.202;18.744;2023-05-20T12:35:08;97667.28;;;22.62;47.94
70589;BME280;58152;49.202;18.744;2023-05-20T12:37:38;97660.88;;;22.84;47.58
70589;BME280;58152;49.202;18.744;2023-05-20T12:40:04;97660.66;;;23.16;47.29
70589;BME280;58152;49.202;18.744;2023-05-20T12:42:36;97647.84;;;23.10;47.34
70589;BME280;58152;49.202;18.744;2023-05-20T12:45:02;97657.81;;;23.27;47.19
70589;BME280;58152;49.202;18.744;2023-05-20T12:47:29;97653.88;;;23.70;46.31
70589;BME280;58152;49.202;18.744;2023-05-20T12:49:54;97657.78;;;23.76;47.04
70589;BME280;58152;49.202;18.744;2023-05-20T12:52:20;97657.22;;;23.72;46.92
70589;BME280;58152;49.202;18.744;2023-05-20T12:54:45;97652.31;;;23.68;46.60
70589;BME280;58152;49.202;18.744;2023-05-20T12:57:10;97646.34;;;23.93;45.82
70589;BME280;58152;49.202;18.744;2023-05-20T12:59:36;97650.56;;;24.23;45.88
70589;BME280;58152;49.202;18.744;2023-05-20T13:02:20;97646.97;;;24.05;43.88
70589;BME280;58152;49.202;18.744;2023-05-20T13:04:48;97635.03;;;24.27;45.64